Terminal Aerodrome Forecast
Issued by NWS

Home | Current Version | Previous Version | Graphics & Text | Print | Product List | Glossary On
Versions: 1 2 3 4 5 6 7 8 9 10 11 12 13 14 15 16 17 18 19 20 21 22 23
757
FTUS43 KABR 221104 AAC
TAFPIR
TAF AMD
KPIR 221104Z 2211/2306 04011KT P6SM VCTS SCT014 BKN120CB
     FM221500 33007KT P6SM BKN100
     FM221700 32014KT P6SM BKN150
     FM230400 32008KT P6SM SCT250=

USA.gov is the U.S. government's official web portal to all federal, state and local government web resources and services.